Time;durP1;ratioP1;P1;durP2;ratioP2;P2;SDS_P1;SDS_P2;PMS_P1;PMS_P2;Temp;Humidity;BMP_temperature;BMP_pressure;BME280_temperature;BME280_humidity;BME280_pressure;Samples;Min_cycle;Max_cycle;Signal;HPM_P1;HPM_P2
2023/04/21 00:00:55;;;;;;;28.60;24.67;;;9.40;99.90;;;;;;4974015;28;20026;-46
2023/04/21 00:03:41;;;;;;;32.92;26.20;;;9.40;99.90;;;;;;4974479;28;20074;-50
2023/04/21 00:06:30;;;;;;;31.80;23.98;;;9.40;99.90;;;;;;4973413;28;20037;-47
2023/04/21 00:09:17;;;;;;;34.05;25.80;;;9.40;99.90;;;;;;4960601;28;20082;-46
2023/04/21 00:12:03;;;;;;;33.25;25.38;;;9.30;99.90;;;;;;4973750;28;20035;-52
2023/04/21 00:14:49;;;;;;;33.47;24.88;;;9.30;99.90;;;;;;4971917;28;20035;-52
2023/04/21 00:17:35;;;;;;;33.30;25.98;;;9.30;99.90;;;;;;4977304;28;20038;-46
2023/04/21 00:20:22;;;;;;;32.72;24.75;;;9.30;99.90;;;;;;4962968;28;20547;-43
2023/04/21 00:23:09;;;;;;;34.20;26.23;;;9.30;99.90;;;;;;4969805;28;20039;-47
2023/04/21 00:25:55;;;;;;;34.55;25.65;;;9.30;99.90;;;;;;4960555;28;20026;-51
2023/04/21 00:28:41;;;;;;;33.63;25.92;;;9.30;99.90;;;;;;4969542;28;20404;-50
2023/04/21 00:31:27;;;;;;;33.60;25.80;;;9.20;99.90;;;;;;4963941;28;20110;-46
2023/04/21 00:34:13;;;;;;;33.70;26.38;;;9.20;99.90;;;;;;4970349;28;20027;-45
2023/04/21 00:36:59;;;;;;;31.75;25.55;;;9.10;99.90;;;;;;4951876;28;20059;-44
2023/04/21 00:39:45;;;;;;;33.42;24.75;;;9.10;99.90;;;;;;4968956;28;20037;-43
2023/04/21 00:42:31;;;;;;;31.83;24.85;;;9.10;99.90;;;;;;4971953;28;20041;-47
2023/04/21 00:45:17;;;;;;;29.88;23.38;;;9.10;99.90;;;;;;4966255;28;20026;-45
2023/04/21 00:48:03;;;;;;;30.35;24.70;;;9.10;99.90;;;;;;4964830;28;20625;-47
2023/04/21 00:50:49;;;;;;;32.45;24.55;;;9.10;99.90;;;;;;4970286;28;20027;-46
2023/04/21 00:53:35;;;;;;;35.53;25.20;;;9.10;99.90;;;;;;4968909;28;20028;-45
2023/04/21 00:56:21;;;;;;;31.20;24.23;;;9.10;99.90;;;;;;4966731;28;20518;-45
2023/04/21 00:59:07;;;;;;;35.65;25.98;;;9.10;99.90;;;;;;4958933;28;20042;-46
2023/04/21 01:01:53;;;;;;;33.58;24.92;;;9.10;99.90;;;;;;4975043;28;20503;-45
2023/04/21 01:04:40;;;;;;;31.65;24.48;;;9.10;99.90;;;;;;4973941;28;20122;-45
2023/04/21 01:07:26;;;;;;;36.35;23.50;;;9.00;99.90;;;;;;4971807;28;20028;-46
2023/04/21 01:10:12;;;;;;;34.78;24.48;;;9.10;99.90;;;;;;4976852;28;20070;-46
2023/04/21 01:12:58;;;;;;;31.35;24.05;;;9.00;99.90;;;;;;4975587;28;20435;-45
2023/04/21 01:15:44;;;;;;;33.00;24.08;;;9.00;99.90;;;;;;4972951;28;20038;-45
2023/04/21 01:18:30;;;;;;;27.95;22.77;;;9.00;99.90;;;;;;4968735;28;20023;-45
2023/04/21 01:21:17;;;;;;;30.08;23.42;;;8.90;99.90;;;;;;4965868;28;20404;-47
2023/04/21 01:24:04;;;;;;;32.40;22.60;;;9.00;99.90;;;;;;4973017;28;20050;-46
2023/04/21 01:26:50;;;;;;;29.10;22.50;;;9.00;99.90;;;;;;4979084;28;20125;-46
2023/04/21 01:29:36;;;;;;;27.90;21.80;;;8.90;99.90;;;;;;4973880;28;20078;-45
2023/04/21 01:32:26;;;;;;;30.83;21.85;;;8.90;99.90;;;;;;4972750;28;20034;-48
2023/04/21 01:35:12;;;;;;;28.45;21.02;;;8.90;99.90;;;;;;4972863;28;20385;-50
2023/04/21 01:37:58;;;;;;;30.80;20.88;;;8.90;99.90;;;;;;4971042;28;20500;-50
2023/04/21 01:40:50;;;;;;;25.40;19.13;;;8.90;99.90;;;;;;4958638;28;20039;-49
2023/04/21 01:43:36;;;;;;;25.70;18.80;;;8.90;99.90;;;;;;4967594;28;20463;-49
2023/04/21 01:46:22;;;;;;;30.98;21.58;;;8.80;99.90;;;;;;4972982;28;20133;-46
2023/04/21 01:49:08;;;;;;;26.75;20.60;;;8.80;99.90;;;;;;4959641;28;20066;-50
2023/04/21 01:51:54;;;;;;;24.83;19.77;;;8.90;99.90;;;;;;4964477;28;20027;-52
2023/04/21 01:54:40;;;;;;;28.58;19.15;;;8.80;99.90;;;;;;4967683;28;20074;-52
2023/04/21 01:57:26;;;;;;;24.77;19.55;;;8.80;99.90;;;;;;4966583;28;20059;-53
2023/04/21 02:00:13;;;;;;;27.48;19.40;;;8.80;99.90;;;;;;4952455;28;20039;-50
2023/04/21 02:02:59;;;;;;;27.50;19.90;;;8.70;99.90;;;;;;4970080;28;20522;-47
2023/04/21 02:05:45;;;;;;;26.05;18.27;;;8.70;99.90;;;;;;4970367;28;20027;-48
2023/04/21 02:08:31;;;;;;;22.35;18.52;;;8.80;99.90;;;;;;4974756;28;20027;-50
2023/04/21 02:11:17;;;;;;;26.88;18.77;;;8.80;99.90;;;;;;4976975;28;20034;-49
2023/04/21 02:14:03;;;;;;;21.45;18.10;;;8.80;99.90;;;;;;4977889;28;20045;-47
2023/04/21 02:16:49;;;;;;;27.10;17.50;;;8.80;99.90;;;;;;4973935;28;20030;-52
2023/04/21 02:19:36;;;;;;;22.85;16.25;;;8.80;99.90;;;;;;4975876;28;20131;-51
2023/04/21 02:22:22;;;;;;;32.40;18.00;;;8.70;99.90;;;;;;4976062;28;20035;-50
2023/04/21 02:25:08;;;;;;;25.88;17.60;;;8.80;99.90;;;;;;4961510;28;20126;-47
2023/04/21 02:27:54;;;;;;;29.42;17.80;;;8.70;99.90;;;;;;4975802;28;20026;-45
2023/04/21 02:30:40;;;;;;;27.67;17.50;;;8.70;99.90;;;;;;4964656;28;20496;-46
2023/04/21 02:33:26;;;;;;;23.70;17.20;;;8.70;99.90;;;;;;4955829;28;20405;-46
2023/04/21 02:36:12;;;;;;;27.60;18.88;;;8.70;99.90;;;;;;4971993;28;20023;-44
2023/04/21 02:38:58;;;;;;;24.52;17.23;;;8.80;99.90;;;;;;4980121;28;20444;-47
2023/04/21 02:41:44;;;;;;;24.27;17.15;;;8.80;99.90;;;;;;4979470;28;20082;-46
2023/04/21 02:44:30;;;;;;;22.50;16.80;;;8.80;99.90;;;;;;4956225;28;20023;-47
2023/04/21 02:47:16;;;;;;;29.58;18.40;;;8.80;99.90;;;;;;4975506;28;20042;-46
2023/04/21 02:50:03;;;;;;;26.77;16.83;;;8.80;99.90;;;;;;4976794;28;20491;-48
2023/04/21 02:52:49;;;;;;;27.17;17.20;;;8.80;99.90;;;;;;4973669;28;20034;-46
2023/04/21 02:55:34;;;;;;;22.25;17.55;;;8.80;99.90;;;;;;4973402;28;20022;-46
2023/04/21 02:58:21;;;;;;;29.77;18.65;;;8.80;99.90;;;;;;4973524;28;20052;-46
2023/04/21 03:01:07;;;;;;;26.27;17.48;;;8.70;99.90;;;;;;4973839;28;20031;-45
2023/04/21 03:03:53;;;;;;;31.35;17.65;;;8.70;99.90;;;;;;4972224;28;20067;-49
2023/04/21 03:06:38;;;;;;;22.95;17.33;;;8.70;99.90;;;;;;4973770;28;20027;-49
2023/04/21 03:09:24;;;;;;;25.73;17.45;;;8.60;99.90;;;;;;4973007;28;20035;-49
2023/04/21 03:12:10;;;;;;;27.48;17.23;;;8.60;99.90;;;;;;4975036;28;20026;-50
2023/04/21 03:14:56;;;;;;;22.67;16.27;;;8.60;99.90;;;;;;4975078;28;20041;-46
2023/04/21 03:17:42;;;;;;;25.52;16.42;;;8.60;99.90;;;;;;4973814;28;20455;-47
2023/04/21 03:20:28;;;;;;;24.77;17.48;;;8.60;99.90;;;;;;4972691;28;20037;-45
2023/04/21 03:23:14;;;;;;;19.92;16.77;;;8.60;99.90;;;;;;4974728;28;20027;-47
2023/04/21 03:26:06;;;;;;;24.98;17.30;;;8.60;99.90;;;;;;4975763;28;20137;-45
2023/04/21 03:28:51;;;;;;;30.30;18.13;;;8.50;99.90;;;;;;4976383;28;20105;-49
2023/04/21 03:31:37;;;;;;;22.92;17.70;;;8.50;99.90;;;;;;4975675;28;20082;-50
2023/04/21 03:34:23;;;;;;;29.20;18.13;;;8.40;99.90;;;;;;4976547;28;20402;-49
2023/04/21 03:37:09;;;;;;;25.60;17.83;;;8.40;99.90;;;;;;4974469;28;20403;-51
2023/04/21 03:39:55;;;;;;;26.63;17.73;;;8.40;99.90;;;;;;4974484;28;20488;-50
2023/04/21 03:42:41;;;;;;;24.48;17.25;;;8.40;99.90;;;;;;4973838;28;20042;-47
2023/04/21 03:45:27;;;;;;;27.33;18.60;;;8.40;99.90;;;;;;4974451;28;20451;-45
2023/04/21 03:48:13;;;;;;;23.10;16.42;;;8.40;99.90;;;;;;4959540;28;20034;-45
2023/04/21 03:50:59;;;;;;;24.77;16.75;;;8.40;99.90;;;;;;4973986;28;20059;-47
2023/04/21 03:53:45;;;;;;;25.63;17.83;;;8.40;99.90;;;;;;4974293;28;20030;-44
2023/04/21 03:56:31;;;;;;;26.15;17.85;;;8.40;99.90;;;;;;4973990;28;20030;-49
2023/04/21 03:59:17;;;;;;;32.50;17.67;;;8.30;99.90;;;;;;4974355;28;20077;-45
2023/04/21 04:02:02;;;;;;;28.98;18.13;;;8.40;99.90;;;;;;4974034;28;20034;-51
2023/04/21 04:04:48;;;;;;;34.75;22.92;;;8.40;99.90;;;;;;4974143;28;20026;-48
2023/04/21 04:07:34;;;;;;;28.00;20.48;;;8.40;99.90;;;;;;4973435;28;20110;-48
2023/04/21 04:10:20;;;;;;;25.08;17.30;;;8.40;99.90;;;;;;4973786;28;20030;-52
2023/04/21 04:13:06;;;;;;;27.08;16.40;;;8.40;99.90;;;;;;4973599;28;20026;-52
2023/04/21 04:15:52;;;;;;;23.35;16.13;;;8.30;99.90;;;;;;4973583;28;20037;-45
2023/04/21 04:18:38;;;;;;;21.83;16.13;;;8.30;99.90;;;;;;4973029;28;20109;-47
2023/04/21 04:21:24;;;;;;;22.65;16.08;;;8.40;99.90;;;;;;4973601;28;20518;-50
2023/04/21 04:24:10;;;;;;;25.75;16.15;;;8.30;99.90;;;;;;4976430;28;20031;-46
2023/04/21 04:26:56;;;;;;;26.83;17.63;;;8.30;99.90;;;;;;4974579;28;20492;-44
2023/04/21 04:29:42;;;;;;;25.30;18.17;;;8.30;99.90;;;;;;4973074;28;20117;-45
2023/04/21 04:32:28;;;;;;;28.17;17.73;;;8.30;99.90;;;;;;4974114;28;20027;-46
2023/04/21 04:35:15;;;;;;;23.38;17.23;;;8.30;99.90;;;;;;4972755;28;20020;-46
2023/04/21 04:38:01;;;;;;;21.75;16.40;;;8.30;99.90;;;;;;4975351;28;20042;-46
2023/04/21 04:40:56;;;;;;;28.38;17.13;;;8.30;99.90;;;;;;4985509;28;20455;-46
2023/04/21 04:43:42;;;;;;;26.45;18.58;;;8.40;99.90;;;;;;4992849;28;20027;-48
2023/04/21 04:46:28;;;;;;;29.95;19.83;;;8.40;99.90;;;;;;4991918;28;20034;-44
2023/04/21 04:49:14;;;;;;;32.20;19.52;;;8.40;99.90;;;;;;4991972;28;20084;-46
2023/04/21 04:52:00;;;;;;;27.08;17.35;;;8.40;99.90;;;;;;4991789;28;20085;-46
2023/04/21 04:54:46;;;;;;;28.83;17.20;;;8.40;99.90;;;;;;4992440;28;20134;-50
2023/04/21 04:57:32;;;;;;;23.85;17.17;;;8.50;99.90;;;;;;4992624;28;20037;-48
2023/04/21 05:00:18;;;;;;;27.38;17.08;;;8.60;99.90;;;;;;4974312;28;20042;-46
2023/04/21 05:03:04;;;;;;;35.38;18.67;;;8.60;99.90;;;;;;4983420;28;20058;-48
2023/04/21 05:05:50;;;;;;;28.05;16.75;;;8.70;99.90;;;;;;4991829;28;20022;-51
2023/04/21 05:08:36;;;;;;;24.52;16.92;;;8.60;99.90;;;;;;4991505;28;20035;-51
2023/04/21 05:11:22;;;;;;;30.52;17.30;;;8.70;99.90;;;;;;4991608;28;20049;-53
2023/04/21 05:14:08;;;;;;;28.90;17.13;;;8.70;99.90;;;;;;4992130;28;20088;-44
2023/04/21 05:16:54;;;;;;;26.55;16.25;;;8.80;99.90;;;;;;4991155;28;20030;-46
2023/04/21 05:19:40;;;;;;;23.92;16.30;;;8.80;99.90;;;;;;4991400;28;20034;-47
2023/04/21 05:22:26;;;;;;;26.58;16.33;;;8.80;99.90;;;;;;4991589;28;20514;-45
2023/04/21 05:25:14;;;;;;;31.13;17.70;;;8.90;99.90;;;;;;4991656;28;20105;-46
2023/04/21 05:28:00;;;;;;;22.83;16.25;;;8.90;99.90;;;;;;4991448;28;20379;-45
2023/04/21 05:30:46;;;;;;;19.75;15.80;;;9.00;99.90;;;;;;4992757;28;20038;-46
2023/04/21 05:33:32;;;;;;;25.98;15.95;;;9.10;99.90;;;;;;4993076;28;20045;-49
2023/04/21 05:36:20;;;;;;;28.95;17.58;;;9.20;99.90;;;;;;4992219;28;20109;-47
2023/04/21 05:39:06;;;;;;;28.55;16.13;;;9.20;99.90;;;;;;4993522;28;20026;-47
2023/04/21 05:41:52;;;;;;;26.02;17.30;;;9.30;99.90;;;;;;4980783;28;20030;-47
2023/04/21 05:44:38;;;;;;;26.85;16.60;;;9.40;99.90;;;;;;4993616;28;20451;-47
2023/04/21 05:47:24;;;;;;;23.90;16.52;;;9.50;99.90;;;;;;4993028;28;20122;-47
2023/04/21 05:50:10;;;;;;;26.45;17.73;;;9.60;99.90;;;;;;4991571;28;20026;-48
2023/04/21 05:52:56;;;;;;;26.25;17.23;;;9.60;99.90;;;;;;4991442;28;20054;-47
2023/04/21 05:55:42;;;;;;;25.15;17.05;;;9.70;99.90;;;;;;4992033;28;20490;-47
2023/04/21 05:58:28;;;;;;;30.60;16.38;;;9.80;99.90;;;;;;4991828;28;20483;-45
2023/04/21 06:01:14;;;;;;;23.55;16.65;;;9.80;99.90;;;;;;4991039;28;20559;-48
2023/04/21 06:04:00;;;;;;;24.15;16.58;;;9.90;99.90;;;;;;4992211;28;20031;-47
2023/04/21 06:06:46;;;;;;;25.90;18.10;;;9.90;99.90;;;;;;4991657;28;20041;-48
2023/04/21 06:09:34;;;;;;;28.55;16.90;;;10.10;99.90;;;;;;4991017;28;20118;-51
2023/04/21 06:12:20;;;;;;;29.52;18.30;;;10.10;99.90;;;;;;4991495;28;20019;-49
2023/04/21 06:15:06;;;;;;;29.95;17.75;;;10.20;99.90;;;;;;4990473;28;20113;-48
2023/04/21 06:17:54;;;;;;;30.17;17.95;;;10.20;99.90;;;;;;4991144;28;20041;-49
2023/04/21 06:20:39;;;;;;;25.75;16.40;;;10.20;99.90;;;;;;4991433;28;20050;-47
2023/04/21 06:23:25;;;;;;;28.05;16.38;;;10.30;99.90;;;;;;4970161;28;20504;-46
2023/04/21 06:26:12;;;;;;;25.92;17.33;;;10.40;99.90;;;;;;4982935;28;20030;-49
2023/04/21 06:28:58;;;;;;;26.77;18.15;;;10.50;99.90;;;;;;4991319;28;20030;-48
2023/04/21 06:31:44;;;;;;;25.27;17.02;;;10.50;99.90;;;;;;4976521;28;20026;-46
2023/04/21 06:34:30;;;;;;;31.35;18.38;;;10.60;99.90;;;;;;4991398;28;20034;-45
2023/04/21 06:37:16;;;;;;;29.88;16.42;;;10.70;99.90;;;;;;4992243;28;20062;-48
2023/04/21 06:40:03;;;;;;;24.40;16.25;;;10.80;99.90;;;;;;4993667;28;20037;-51
2023/04/21 06:42:49;;;;;;;23.95;16.17;;;10.80;99.90;;;;;;4991624;28;20062;-45
2023/04/21 06:45:35;;;;;;;27.90;17.83;;;10.90;99.90;;;;;;4991525;28;20030;-49
2023/04/21 06:48:21;;;;;;;21.17;16.83;;;10.90;99.90;;;;;;4990879;28;20545;-46
2023/04/21 06:51:06;;;;;;;26.08;16.77;;;11.00;99.90;;;;;;4991254;28;20137;-48
2023/04/21 06:53:52;;;;;;;23.65;16.77;;;11.10;99.90;;;;;;4992827;28;20089;-50
2023/04/21 06:56:40;;;;;;;26.38;18.25;;;11.20;99.90;;;;;;4994261;28;20031;-47
2023/04/21 06:59:26;;;;;;;27.05;17.20;;;11.30;99.90;;;;;;4994596;28;20085;-50
2023/04/21 07:02:12;;;;;;;23.92;16.48;;;11.50;99.90;;;;;;4994766;28;20030;-51
2023/04/21 07:04:57;;;;;;;26.10;16.48;;;11.60;99.90;;;;;;4995219;28;20046;-46
2023/04/21 07:07:43;;;;;;;25.02;16.05;;;11.60;99.90;;;;;;4994127;28;20022;-46
2023/04/21 07:10:30;;;;;;;28.08;17.27;;;11.70;99.90;;;;;;4994641;28;20026;-49
2023/04/21 07:13:16;;;;;;;24.63;16.73;;;11.70;99.90;;;;;;4993658;28;20111;-48
2023/04/21 07:16:02;;;;;;;24.35;15.82;;;11.80;99.90;;;;;;4994216;28;20036;-51
2023/04/21 07:18:48;;;;;;;27.23;17.35;;;11.90;99.90;;;;;;4994173;28;20529;-49
2023/04/21 07:21:35;;;;;;;27.58;15.60;;;12.00;99.90;;;;;;4992895;28;20413;-51
2023/04/21 07:24:20;;;;;;;28.55;16.38;;;12.00;99.90;;;;;;4993319;28;20117;-49
2023/04/21 07:27:06;;;;;;;25.00;16.33;;;12.20;99.90;;;;;;4993750;28;20077;-50
2023/04/21 07:29:52;;;;;;;22.17;15.73;;;12.30;99.90;;;;;;4993754;28;20022;-45
2023/04/21 07:32:38;;;;;;;26.13;16.88;;;12.40;99.90;;;;;;4994013;28;20038;-48
2023/04/21 07:35:24;;;;;;;23.27;15.70;;;12.50;99.90;;;;;;4993829;28;20044;-46
2023/04/21 07:38:10;;;;;;;30.83;16.10;;;12.40;99.90;;;;;;4993387;28;20026;-46
2023/04/21 07:40:56;;;;;;;24.10;15.52;;;12.50;99.90;;;;;;4978756;28;20033;-45
2023/04/21 07:43:42;;;;;;;24.65;16.10;;;12.60;99.90;;;;;;4993751;28;20133;-47
2023/04/21 07:46:31;;;;;;;27.60;16.23;;;12.70;99.90;;;;;;4993439;28;20483;-46
2023/04/21 07:49:17;;;;;;;24.83;15.18;;;12.80;99.90;;;;;;4994055;28;20033;-46
2023/04/21 07:52:03;;;;;;;22.95;14.27;;;12.90;99.90;;;;;;4994096;28;20403;-47
2023/04/21 07:54:50;;;;;;;22.25;15.18;;;12.90;99.90;;;;;;4994342;28;20546;-48
2023/04/21 07:57:37;;;;;;;32.63;16.52;;;13.10;99.90;;;;;;4992964;28;20387;-52
2023/04/21 08:00:23;;;;;;;21.48;13.52;;;13.20;99.90;;;;;;4993527;28;20491;-47
2023/04/21 08:03:09;;;;;;;23.35;13.82;;;13.40;99.90;;;;;;4979320;28;20058;-48
2023/04/21 08:05:55;;;;;;;25.92;14.55;;;13.50;99.90;;;;;;4978824;28;20097;-44
2023/04/21 08:08:41;;;;;;;37.67;14.98;;;13.60;99.90;;;;;;4993307;28;20483;-48
2023/04/21 08:11:27;;;;;;;21.67;13.73;;;13.70;99.90;;;;;;4993227;28;20117;-46
2023/04/21 08:14:13;;;;;;;22.25;13.68;;;13.70;99.90;;;;;;4993379;28;20031;-45
2023/04/21 08:16:59;;;;;;;20.25;13.70;;;13.70;99.90;;;;;;4993238;28;20030;-49
2023/04/21 08:19:45;;;;;;;24.98;13.77;;;13.70;99.90;;;;;;4993562;28;20117;-47
2023/04/21 08:22:31;;;;;;;19.33;13.38;;;13.80;99.90;;;;;;4993824;28;20030;-48
2023/04/21 08:25:17;;;;;;;21.27;13.32;;;13.90;99.90;;;;;;4993136;28;20110;-47
2023/04/21 08:28:03;;;;;;;24.23;13.55;;;14.10;99.90;;;;;;4993568;28;20030;-51
2023/04/21 08:30:49;;;;;;;20.05;13.88;;;14.10;99.90;;;;;;4995615;28;20030;-52
2023/04/21 08:33:35;;;;;;;23.70;14.13;;;14.30;99.90;;;;;;4993954;28;20083;-54
2023/04/21 08:36:21;;;;;;;18.63;12.50;;;14.30;99.90;;;;;;4992980;28;20446;-50
2023/04/21 08:39:07;;;;;;;19.08;12.85;;;14.50;99.90;;;;;;4992944;28;20034;-51
2023/04/21 08:41:55;;;;;;;19.67;13.25;;;14.60;99.90;;;;;;4966550;28;20118;-54
2023/04/21 08:44:41;;;;;;;19.65;13.05;;;14.60;99.90;;;;;;4966700;28;20082;-48
2023/04/21 08:47:28;;;;;;;20.95;13.60;;;14.70;99.90;;;;;;4966970;28;20089;-50
2023/04/21 08:50:14;;;;;;;20.60;13.90;;;14.80;99.90;;;;;;4971613;28;20046;-48
2023/04/21 08:53:00;;;;;;;17.35;13.30;;;14.80;99.90;;;;;;4972607;28;20034;-49
2023/04/21 08:55:51;;;;;;;23.45;12.13;;;14.80;99.90;;;;;;4967633;28;20102;-46
2023/04/21 08:58:37;;;;;;;18.33;12.35;;;14.80;99.90;;;;;;4972254;28;20070;-47
2023/04/21 09:01:23;;;;;;;24.63;13.60;;;15.10;99.90;;;;;;4971596;28;20034;-46
2023/04/21 09:04:18;;;;;;;19.98;12.77;;;15.30;99.90;;;;;;4969589;28;20069;-45
2023/04/21 09:07:04;;;;;;;17.70;12.20;;;15.30;99.90;;;;;;4969404;28;20039;-47
2023/04/21 09:09:54;;;;;;;19.17;11.68;;;15.40;99.90;;;;;;4973179;28;20022;-50
2023/04/21 09:12:40;;;;;;;18.38;13.10;;;15.50;99.90;;;;;;4971704;28;20395;-49
2023/04/21 09:15:26;;;;;;;20.90;11.48;;;15.30;99.90;;;;;;4972220;28;20495;-51
2023/04/21 09:18:21;;;;;;;17.17;12.00;;;15.50;99.90;;;;;;4966734;28;20050;-48
2023/04/21 09:21:15;;;;;;;17.63;10.85;;;15.60;99.90;;;;;;4972381;28;20518;-48
2023/04/21 09:24:05;;;;;;;20.92;12.23;;;15.90;99.90;;;;;;4968718;28;20570;-47
2023/04/21 09:26:52;;;;;;;20.83;12.63;;;16.00;99.80;;;;;;4991594;28;20054;-52
2023/04/21 09:29:38;;;;;;;18.27;10.90;;;15.90;99.50;;;;;;4991724;28;20520;-46
2023/04/21 09:32:24;;;;;;;14.43;11.32;;;15.90;99.50;;;;;;4992289;28;20080;-47
2023/04/21 09:35:10;;;;;;;19.23;12.27;;;16.00;99.40;;;;;;4991942;28;20427;-45
2023/04/21 09:37:56;;;;;;;18.02;11.32;;;16.20;98.90;;;;;;4993149;28;20033;-46
2023/04/21 09:40:42;;;;;;;15.93;11.20;;;16.40;98.90;;;;;;4991735;28;20442;-46
2023/04/21 09:43:28;;;;;;;15.95;10.43;;;16.50;98.90;;;;;;4991757;28;20030;-46
2023/04/21 09:46:15;;;;;;;21.55;10.00;;;16.50;98.60;;;;;;4991096;28;20114;-52
2023/04/21 09:49:02;;;;;;;14.30;9.50;;;16.70;98.30;;;;;;4991737;28;20022;-48
2023/04/21 09:51:49;;;;;;;16.35;9.25;;;16.70;97.30;;;;;;4991764;28;20025;-46
2023/04/21 09:54:37;;;;;;;15.23;9.52;;;16.90;97.00;;;;;;4991129;28;20487;-47
2023/04/21 09:57:25;;;;;;;22.77;9.52;;;17.00;96.60;;;;;;4991857;28;20027;-45
2023/04/21 10:00:12;;;;;;;12.73;9.65;;;17.10;96.90;;;;;;4976056;28;20031;-46
2023/04/21 10:03:03;;;;;;;15.75;9.00;;;17.20;96.70;;;;;;4973486;28;20050;-46
2023/04/21 10:05:49;;;;;;;16.60;9.55;;;17.30;96.30;;;;;;4972979;28;20041;-46
2023/04/21 10:08:36;;;;;;;18.92;9.77;;;17.20;96.00;;;;;;4970344;28;20558;-46
2023/04/21 10:11:22;;;;;;;15.57;8.00;;;17.20;96.10;;;;;;4970520;28;20104;-49
2023/04/21 10:14:09;;;;;;;18.48;8.30;;;17.30;96.00;;;;;;4970695;28;20026;-49
2023/04/21 10:16:56;;;;;;;14.98;7.78;;;17.40;94.60;;;;;;4970064;28;20022;-48
2023/04/21 10:19:54;;;;;;;13.13;7.05;;;17.50;93.50;;;;;;4969424;28;20038;-47
2023/04/21 10:22:41;;;;;;;19.85;7.15;;;17.60;93.00;;;;;;4970833;28;20046;-50
2023/04/21 10:25:28;;;;;;;13.95;7.70;;;17.70;92.90;;;;;;4971563;28;20099;-48
2023/04/21 10:28:17;;;;;;;17.52;8.20;;;17.60;92.10;;;;;;4970803;28;20416;-51
2023/04/21 10:31:16;;;;;;;13.43;7.35;;;17.60;91.90;;;;;;4975054;28;20462;-52
2023/04/21 10:34:08;;;;;;;13.05;6.93;;;17.70;91.80;;;;;;4974541;28;20019;-47
2023/04/21 10:36:54;;;;;;;14.50;7.47;;;17.90;91.40;;;;;;4970882;28;20067;-46
2023/04/21 10:39:47;;;;;;;15.43;7.22;;;17.90;91.80;;;;;;4980796;28;20041;-49
2023/04/21 10:42:34;;;;;;;21.13;8.73;;;18.00;91.60;;;;;;4971126;28;20114;-48
2023/04/21 10:45:23;;;;;;;11.52;6.97;;;18.10;91.30;;;;;;4968081;28;20507;-47
2023/04/21 10:48:12;;;;;;;13.32;7.75;;;18.10;91.30;;;;;;4968997;28;20038;-55
2023/04/21 10:50:58;;;;;;;13.85;7.50;;;18.20;91.10;;;;;;4981710;28;20447;-45
2023/04/21 10:53:44;;;;;;;13.75;7.25;;;18.30;91.20;;;;;;4980196;28;20015;-48
2023/04/21 10:56:31;;;;;;;11.40;7.18;;;18.20;90.80;;;;;;4964500;28;20085;-51
2023/04/21 10:59:18;;;;;;;18.95;7.43;;;18.20;91.00;;;;;;4976623;28;20027;-55
2023/04/21 11:02:11;;;;;;;13.38;6.93;;;18.30;90.70;;;;;;4974922;28;20043;-49
2023/04/21 11:04:57;;;;;;;11.98;6.95;;;18.30;90.50;;;;;;4967372;28;20380;-46
2023/04/21 11:07:43;;;;;;;13.70;7.13;;;18.20;90.50;;;;;;4984045;28;20031;-49
2023/04/21 11:10:39;;;;;;;12.57;7.63;;;18.50;90.30;;;;;;4970029;28;20533;-48
2023/04/21 11:13:32;;;;;;;15.02;7.30;;;18.50;90.10;;;;;;4979937;28;20035;-48
2023/04/21 11:16:19;;;;;;;14.98;7.78;;;18.40;90.10;;;;;;4970274;28;20042;-53
2023/04/21 11:19:05;;;;;;;12.57;7.25;;;18.40;89.40;;;;;;4980892;28;20033;-51
2023/04/21 11:21:54;;;;;;;13.32;7.72;;;18.20;89.70;;;;;;4980967;28;20043;-51
2023/04/21 11:24:44;;;;;;;16.10;7.05;;;18.40;89.90;;;;;;4945697;28;20034;-51
2023/04/21 11:27:30;;;;;;;15.68;7.10;;;18.40;88.30;;;;;;4954467;28;20035;-56
2023/04/21 11:30:16;;;;;;;12.55;6.97;;;18.30;89.00;;;;;;4981708;28;20030;-51
2023/04/21 11:33:02;;;;;;;11.85;7.35;;;18.40;88.90;;;;;;4977161;28;20117;-54
2023/04/21 11:35:50;;;;;;;13.20;7.13;;;18.60;87.30;;;;;;4975840;28;20081;-52
2023/04/21 11:38:45;;;;;;;10.32;6.80;;;18.60;87.30;;;;;;4978665;28;20118;-45
2023/04/21 11:41:31;;;;;;;14.45;7.03;;;18.80;86.80;;;;;;4977995;28;20027;-49
2023/04/21 11:44:43;;;;;;;13.18;6.82;;;18.80;85.00;;;;;;4974661;28;20051;-51
2023/04/21 11:47:29;;;;;;;9.75;6.63;;;18.60;85.40;;;;;;4976199;28;20035;-56
2023/04/21 11:50:31;;;;;;;19.65;8.98;;;18.50;85.50;;;;;;4975799;28;20031;-53
2023/04/21 11:53:17;;;;;;;16.30;6.72;;;18.60;85.60;;;;;;4982607;28;20051;-49
2023/04/21 11:56:04;;;;;;;18.40;7.95;;;18.70;84.70;;;;;;4976542;28;20031;-49
2023/04/21 11:58:54;;;;;;;10.82;7.32;;;18.80;83.70;;;;;;4952203;28;20049;-47
2023/04/21 12:01:51;;;;;;;18.63;7.00;;;18.90;84.00;;;;;;4972409;28;20019;-48
2023/04/21 12:04:37;;;;;;;9.95;7.10;;;19.10;83.50;;;;;;4968469;28;20055;-53
2023/04/21 12:07:23;;;;;;;10.88;6.88;;;19.20;82.70;;;;;;4981650;28;20048;-49
2023/04/21 12:10:20;;;;;;;24.85;18.73;;;19.40;83.10;;;;;;4977314;28;20026;-50
2023/04/21 12:13:06;;;;;;;16.08;9.98;;;19.30;83.70;;;;;;4975287;28;20030;-49
2023/04/21 12:15:52;;;;;;;11.63;7.25;;;19.30;83.40;;;;;;4966198;28;20485;-48
2023/04/21 12:18:38;;;;;;;10.90;7.32;;;19.40;83.30;;;;;;4974367;28;20023;-51
2023/04/21 12:21:27;;;;;;;11.85;7.30;;;19.50;83.90;;;;;;4976764;28;20037;-55
2023/04/21 12:24:14;;;;;;;9.63;7.18;;;19.40;83.20;;;;;;4968097;28;20060;-49
2023/04/21 12:27:01;;;;;;;10.07;6.93;;;19.30;83.40;;;;;;4975632;28;20034;-50
2023/04/21 12:29:47;;;;;;;9.68;6.80;;;19.40;82.70;;;;;;4975071;28;20035;-49
2023/04/21 12:32:33;;;;;;;12.35;6.80;;;19.40;82.30;;;;;;4956753;28;20039;-47
2023/04/21 12:35:19;;;;;;;10.13;6.88;;;19.50;83.30;;;;;;4968020;28;20038;-50
2023/04/21 12:38:05;;;;;;;11.45;7.03;;;19.60;82.70;;;;;;4942123;28;20443;-47
2023/04/21 12:40:51;;;;;;;8.68;6.28;;;19.80;81.50;;;;;;4975905;28;20106;-50
2023/04/21 12:43:37;;;;;;;10.35;6.90;;;20.00;81.70;;;;;;4971459;28;20026;-51
2023/04/21 12:46:23;;;;;;;12.63;6.85;;;20.00;80.50;;;;;;4963430;28;20050;-50
2023/04/21 12:49:10;;;;;;;13.40;8.88;;;19.90;80.30;;;;;;4978273;28;20030;-51
2023/04/21 12:51:55;;;;;;;14.95;7.72;;;20.10;80.00;;;;;;4980467;28;20027;-47
2023/04/21 12:54:43;;;;;;;13.45;7.20;;;20.20;79.60;;;;;;4946915;28;20071;-47
2023/04/21 12:57:30;;;;;;;12.65;6.63;;;20.20;79.40;;;;;;4961647;28;20031;-51
2023/04/21 13:00:16;;;;;;;11.48;5.93;;;20.10;79.60;;;;;;4966534;28;20043;-51
2023/04/21 13:03:03;;;;;;;12.57;6.68;;;20.40;78.90;;;;;;4972581;28;20352;-53
2023/04/21 13:05:49;;;;;;;11.70;6.53;;;20.50;78.10;;;;;;4950772;28;20078;-46
2023/04/21 13:08:35;;;;;;;10.60;5.90;;;20.60;77.60;;;;;;4973057;28;20496;-50
2023/04/21 13:11:21;;;;;;;12.32;6.85;;;20.70;77.90;;;;;;4974871;28;20035;-49
2023/04/21 13:14:07;;;;;;;11.32;5.95;;;21.00;77.60;;;;;;4974472;28;20022;-53
2023/04/21 13:16:53;;;;;;;14.45;7.32;;;21.00;76.40;;;;;;4961605;28;20505;-55
2023/04/21 13:19:39;;;;;;;8.15;6.03;;;21.10;76.80;;;;;;4961020;28;20035;-48
2023/04/21 13:22:25;;;;;;;8.45;6.07;;;21.00;77.40;;;;;;4973895;28;20117;-48
2023/04/21 13:25:11;;;;;;;28.42;20.92;;;21.10;76.40;;;;;;4959015;28;20045;-48
2023/04/21 13:27:57;;;;;;;10.77;6.95;;;21.10;76.60;;;;;;4967339;28;20030;-47
2023/04/21 13:30:43;;;;;;;8.00;6.03;;;21.20;76.00;;;;;;4975891;28;20038;-50
2023/04/21 13:33:33;;;;;;;11.52;6.53;;;21.30;75.20;;;;;;4960744;28;20491;-47
2023/04/21 13:36:19;;;;;;;14.52;6.63;;;21.20;75.00;;;;;;4959447;28;20054;-47
2023/04/21 13:39:09;;;;;;;13.02;8.50;;;21.30;76.10;;;;;;4977867;28;20023;-47
2023/04/21 13:41:55;;;;;;;13.32;7.72;;;21.50;76.10;;;;;;4972759;28;20021;-49
2023/04/21 13:44:41;;;;;;;9.10;6.78;;;21.50;75.90;;;;;;4974226;28;20023;-49
2023/04/21 13:47:33;;;;;;;11.00;6.85;;;21.50;76.50;;;;;;4952698;28;20101;-49
2023/04/21 13:50:20;;;;;;;12.80;7.35;;;21.50;75.20;;;;;;4973845;28;20507;-50
2023/04/21 13:53:06;;;;;;;10.65;7.35;;;21.60;75.60;;;;;;4975038;28;20502;-49
2023/04/21 13:55:53;;;;;;;12.93;6.60;;;21.90;75.10;;;;;;4974442;28;20027;-48
2023/04/21 13:58:40;;;;;;;10.30;6.97;;;22.00;74.60;;;;;;4965475;28;20081;-54
2023/04/21 14:01:26;;;;;;;12.40;6.75;;;22.00;73.60;;;;;;4975268;28;20139;-48
2023/04/21 14:04:12;;;;;;;10.85;6.55;;;22.00;74.70;;;;;;4978581;28;20027;-49
2023/04/21 14:06:58;;;;;;;12.15;6.35;;;22.10;73.10;;;;;;4978003;28;20105;-51
2023/04/21 14:09:44;;;;;;;10.98;7.55;;;22.20;72.70;;;;;;4979351;28;20500;-64
2023/04/21 14:12:30;;;;;;;14.27;7.32;;;22.20;73.20;;;;;;4978162;28;20557;-54
2023/04/21 14:15:16;;;;;;;10.73;6.30;;;22.20;72.20;;;;;;4970357;28;20027;-48